sensor_id;sensor_type;location;lat;lon;timestamp;P1;durP1;ratioP1;P2;durP2;ratioP2
17177;SDS011;8704;52.006;4.374;2022-12-08T00:01:32;23.23;;;21.90;;
17177;SDS011;8704;52.006;4.374;2022-12-08T00:04:01;23.00;;;21.60;;
17177;SDS011;8704;52.006;4.374;2022-12-08T00:06:31;24.08;;;22.80;;
17177;SDS011;8704;52.006;4.374;2022-12-08T00:09:21;24.13;;;22.73;;
17177;SDS011;8704;52.006;4.374;2022-12-08T00:11:51;23.52;;;22.13;;
17177;SDS011;8704;52.006;4.374;2022-12-08T00:14:23;23.23;;;21.90;;
17177;SDS011;8704;52.006;4.374;2022-12-08T00:16:53;25.00;;;23.42;;
17177;SDS011;8704;52.006;4.374;2022-12-08T00:19:21;26.38;;;24.73;;
17177;SDS011;8704;52.006;4.374;2022-12-08T00:21:50;26.02;;;24.15;;
17177;SDS011;8704;52.006;4.374;2022-12-08T00:24:19;29.30;;;27.40;;
17177;SDS011;8704;52.006;4.374;2022-12-08T00:26:48;29.88;;;27.92;;
17177;SDS011;8704;52.006;4.374;2022-12-08T00:29:16;28.83;;;27.10;;
17177;SDS011;8704;52.006;4.374;2022-12-08T00:31:46;29.05;;;27.15;;
17177;SDS011;8704;52.006;4.374;2022-12-08T00:34:14;29.92;;;27.90;;
17177;SDS011;8704;52.006;4.374;2022-12-08T00:36:42;29.00;;;27.20;;
17177;SDS011;8704;52.006;4.374;2022-12-08T00:39:12;31.80;;;29.65;;
17177;SDS011;8704;52.006;4.374;2022-12-08T00:41:41;32.90;;;30.80;;
17177;SDS011;8704;52.006;4.374;2022-12-08T00:44:26;33.10;;;30.80;;
17177;SDS011;8704;52.006;4.374;2022-12-08T00:46:56;34.42;;;32.33;;
17177;SDS011;8704;52.006;4.374;2022-12-08T00:49:24;38.60;;;35.95;;
17177;SDS011;8704;52.006;4.374;2022-12-08T00:51:52;40.85;;;38.13;;
17177;SDS011;8704;52.006;4.374;2022-12-08T00:54:20;39.72;;;37.33;;
17177;SDS011;8704;52.006;4.374;2022-12-08T00:56:49;43.03;;;40.33;;
17177;SDS011;8704;52.006;4.374;2022-12-08T00:59:17;43.60;;;41.00;;
17177;SDS011;8704;52.006;4.374;2022-12-08T01:01:46;35.97;;;34.05;;
17177;SDS011;8704;52.006;4.374;2022-12-08T01:04:16;29.30;;;27.58;;
17177;SDS011;8704;52.006;4.374;2022-12-08T01:06:45;38.87;;;36.77;;
17177;SDS011;8704;52.006;4.374;2022-12-08T01:09:15;41.15;;;38.58;;
17177;SDS011;8704;52.006;4.374;2022-12-08T01:11:43;42.05;;;39.88;;
17177;SDS011;8704;52.006;4.374;2022-12-08T01:14:12;39.80;;;37.38;;
17177;SDS011;8704;52.006;4.374;2022-12-08T01:16:40;38.72;;;36.40;;
17177;SDS011;8704;52.006;4.374;2022-12-08T01:19:09;35.90;;;33.50;;
17177;SDS011;8704;52.006;4.374;2022-12-08T01:21:40;33.53;;;31.17;;
17177;SDS011;8704;52.006;4.374;2022-12-08T01:24:09;33.30;;;31.50;;
17177;SDS011;8704;52.006;4.374;2022-12-08T01:26:38;33.30;;;31.48;;
17177;SDS011;8704;52.006;4.374;2022-12-08T01:29:06;33.17;;;31.10;;
17177;SDS011;8704;52.006;4.374;2022-12-08T01:31:35;33.30;;;31.27;;
17177;SDS011;8704;52.006;4.374;2022-12-08T01:34:03;33.05;;;30.58;;
17177;SDS011;8704;52.006;4.374;2022-12-08T01:36:32;33.10;;;31.40;;
17177;SDS011;8704;52.006;4.374;2022-12-08T01:39:05;32.90;;;31.17;;
17177;SDS011;8704;52.006;4.374;2022-12-08T01:41:37;31.45;;;29.55;;
17177;SDS011;8704;52.006;4.374;2022-12-08T01:47:29;30.48;;;28.88;;
17177;SDS011;8704;52.006;4.374;2022-12-08T01:50:07;30.60;;;28.88;;
17177;SDS011;8704;52.006;4.374;2022-12-08T01:52:38;33.97;;;31.80;;
17177;SDS011;8704;52.006;4.374;2022-12-08T01:55:09;35.13;;;32.90;;
17177;SDS011;8704;52.006;4.374;2022-12-08T01:57:42;24.00;;;22.50;;
17177;SDS011;8704;52.006;4.374;2022-12-08T02:00:14;25.30;;;23.60;;
17177;SDS011;8704;52.006;4.374;2022-12-08T02:02:47;16.05;;;14.95;;
17177;SDS011;8704;52.006;4.374;2022-12-08T02:05:19;16.42;;;15.18;;
17177;SDS011;8704;52.006;4.374;2022-12-08T02:07:49;18.00;;;16.58;;
17177;SDS011;8704;52.006;4.374;2022-12-08T02:10:21;18.10;;;16.48;;
17177;SDS011;8704;52.006;4.374;2022-12-08T02:12:50;13.70;;;12.30;;
17177;SDS011;8704;52.006;4.374;2022-12-08T02:15:21;12.20;;;10.35;;
17177;SDS011;8704;52.006;4.374;2022-12-08T02:18:00;12.15;;;10.85;;
17177;SDS011;8704;52.006;4.374;2022-12-08T02:23:18;13.10;;;8.60;;
17177;SDS011;8704;52.006;4.374;2022-12-08T02:26:04;8.98;;;8.18;;
17177;SDS011;8704;52.006;4.374;2022-12-08T02:32:14;9.00;;;5.80;;
17177;SDS011;8704;52.006;4.374;2022-12-08T02:34:58;5.88;;;5.35;;
17177;SDS011;8704;52.006;4.374;2022-12-08T02:37:34;7.40;;;6.70;;
17177;SDS011;8704;52.006;4.374;2022-12-08T02:40:06;9.70;;;8.93;;
17177;SDS011;8704;52.006;4.374;2022-12-08T02:42:41;10.25;;;9.40;;
17177;SDS011;8704;52.006;4.374;2022-12-08T02:47:41;10.27;;;9.30;;
17177;SDS011;8704;52.006;4.374;2022-12-08T02:50:11;8.75;;;7.80;;
17177;SDS011;8704;52.006;4.374;2022-12-08T02:52:42;10.82;;;9.98;;
17177;SDS011;8704;52.006;4.374;2022-12-08T02:55:13;12.50;;;11.60;;
17177;SDS011;8704;52.006;4.374;2022-12-08T02:57:55;13.27;;;12.20;;
17177;SDS011;8704;52.006;4.374;2022-12-08T03:00:49;14.18;;;13.10;;
17177;SDS011;8704;52.006;4.374;2022-12-08T03:03:40;15.13;;;14.27;;
17177;SDS011;8704;52.006;4.374;2022-12-08T03:06:17;15.90;;;14.93;;
17177;SDS011;8704;52.006;4.374;2022-12-08T03:08:54;14.25;;;12.88;;
17177;SDS011;8704;52.006;4.374;2022-12-08T03:11:27;9.53;;;8.63;;
17177;SDS011;8704;52.006;4.374;2022-12-08T03:14:01;7.53;;;6.93;;
17177;SDS011;8704;52.006;4.374;2022-12-08T03:16:33;9.55;;;7.88;;
17177;SDS011;8704;52.006;4.374;2022-12-08T03:19:05;10.80;;;5.05;;
17177;SDS011;8704;52.006;4.374;2022-12-08T03:21:38;7.25;;;5.20;;
17177;SDS011;8704;52.006;4.374;2022-12-08T03:24:07;8.45;;;6.50;;
17177;SDS011;8704;52.006;4.374;2022-12-08T03:26:38;12.50;;;7.30;;
17177;SDS011;8704;52.006;4.374;2022-12-08T03:29:12;7.53;;;6.32;;
17177;SDS011;8704;52.006;4.374;2022-12-08T03:31:41;15.38;;;5.80;;
17177;SDS011;8704;52.006;4.374;2022-12-08T03:34:15;7.03;;;4.68;;
17177;SDS011;8704;52.006;4.374;2022-12-08T03:36:45;7.28;;;5.10;;
17177;SDS011;8704;52.006;4.374;2022-12-08T03:39:13;12.50;;;4.32;;
17177;SDS011;8704;52.006;4.374;2022-12-08T03:41:41;4.47;;;3.97;;
17177;SDS011;8704;52.006;4.374;2022-12-08T03:44:09;6.78;;;3.28;;
17177;SDS011;8704;52.006;4.374;2022-12-08T03:46:37;4.75;;;2.85;;
17177;SDS011;8704;52.006;4.374;2022-12-08T03:49:05;5.95;;;2.53;;
17177;SDS011;8704;52.006;4.374;2022-12-08T03:51:33;5.03;;;2.75;;
17177;SDS011;8704;52.006;4.374;2022-12-08T03:54:03;8.30;;;2.15;;
17177;SDS011;8704;52.006;4.374;2022-12-08T03:56:31;5.20;;;2.33;;
17177;SDS011;8704;52.006;4.374;2022-12-08T03:59:01;10.45;;;2.75;;
17177;SDS011;8704;52.006;4.374;2022-12-08T04:01:30;6.88;;;2.15;;
17177;SDS011;8704;52.006;4.374;2022-12-08T04:03:59;4.60;;;2.50;;
17177;SDS011;8704;52.006;4.374;2022-12-08T04:06:27;3.97;;;2.25;;
17177;SDS011;8704;52.006;4.374;2022-12-08T04:08:55;5.30;;;2.65;;
17177;SDS011;8704;52.006;4.374;2022-12-08T04:11:24;4.35;;;2.13;;
17177;SDS011;8704;52.006;4.374;2022-12-08T04:13:52;3.45;;;2.20;;
17177;SDS011;8704;52.006;4.374;2022-12-08T04:16:21;4.30;;;1.80;;
17177;SDS011;8704;52.006;4.374;2022-12-08T04:18:51;3.13;;;1.63;;
17177;SDS011;8704;52.006;4.374;2022-12-08T04:21:19;3.53;;;1.67;;
17177;SDS011;8704;52.006;4.374;2022-12-08T04:23:47;4.90;;;2.17;;
17177;SDS011;8704;52.006;4.374;2022-12-08T04:26:20;11.65;;;3.03;;
17177;SDS011;8704;52.006;4.374;2022-12-08T04:28:49;4.03;;;2.90;;
17177;SDS011;8704;52.006;4.374;2022-12-08T04:31:17;8.98;;;3.53;;
17177;SDS011;8704;52.006;4.374;2022-12-08T04:33:45;6.05;;;4.00;;
17177;SDS011;8704;52.006;4.374;2022-12-08T04:36:13;11.00;;;3.38;;
17177;SDS011;8704;52.006;4.374;2022-12-08T04:38:41;4.60;;;2.60;;
17177;SDS011;8704;52.006;4.374;2022-12-08T04:41:09;4.60;;;2.47;;
17177;SDS011;8704;52.006;4.374;2022-12-08T04:43:37;4.13;;;2.63;;
17177;SDS011;8704;52.006;4.374;2022-12-08T04:46:07;6.55;;;3.80;;
17177;SDS011;8704;52.006;4.374;2022-12-08T04:48:36;6.43;;;2.20;;
17177;SDS011;8704;52.006;4.374;2022-12-08T04:51:05;6.63;;;2.42;;
17177;SDS011;8704;52.006;4.374;2022-12-08T04:53:33;5.60;;;2.63;;
17177;SDS011;8704;52.006;4.374;2022-12-08T04:56:01;2.90;;;2.00;;
17177;SDS011;8704;52.006;4.374;2022-12-08T04:58:30;5.45;;;2.30;;
17177;SDS011;8704;52.006;4.374;2022-12-08T05:00:58;6.78;;;2.45;;
17177;SDS011;8704;52.006;4.374;2022-12-08T05:03:27;3.83;;;1.88;;
17177;SDS011;8704;52.006;4.374;2022-12-08T05:05:55;3.80;;;2.42;;
17177;SDS011;8704;52.006;4.374;2022-12-08T05:08:25;6.63;;;2.25;;
17177;SDS011;8704;52.006;4.374;2022-12-08T05:11:00;6.45;;;2.42;;
17177;SDS011;8704;52.006;4.374;2022-12-08T05:13:28;8.00;;;3.08;;
17177;SDS011;8704;52.006;4.374;2022-12-08T05:16:01;3.25;;;2.53;;
17177;SDS011;8704;52.006;4.374;2022-12-08T05:18:31;3.20;;;2.03;;
17177;SDS011;8704;52.006;4.374;2022-12-08T05:20:59;5.15;;;2.63;;
17177;SDS011;8704;52.006;4.374;2022-12-08T05:23:27;6.07;;;2.22;;
17177;SDS011;8704;52.006;4.374;2022-12-08T05:25:55;2.95;;;1.42;;
17177;SDS011;8704;52.006;4.374;2022-12-08T05:28:23;3.60;;;1.10;;
17177;SDS011;8704;52.006;4.374;2022-12-08T05:31:25;6.75;;;1.63;;
17177;SDS011;8704;52.006;4.374;2022-12-08T05:33:53;4.55;;;1.25;;
17177;SDS011;8704;52.006;4.374;2022-12-08T05:36:28;4.75;;;1.40;;
17177;SDS011;8704;52.006;4.374;2022-12-08T05:38:56;3.90;;;1.35;;
17177;SDS011;8704;52.006;4.374;2022-12-08T05:41:24;5.03;;;1.58;;
17177;SDS011;8704;52.006;4.374;2022-12-08T05:43:52;2.78;;;1.30;;
17177;SDS011;8704;52.006;4.374;2022-12-08T05:46:20;4.28;;;1.65;;
17177;SDS011;8704;52.006;4.374;2022-12-08T05:48:50;4.15;;;1.60;;
17177;SDS011;8704;52.006;4.374;2022-12-08T05:51:19;5.13;;;1.88;;
17177;SDS011;8704;52.006;4.374;2022-12-08T05:53:48;5.57;;;2.40;;
17177;SDS011;8704;52.006;4.374;2022-12-08T05:56:18;3.55;;;2.10;;
17177;SDS011;8704;52.006;4.374;2022-12-08T05:58:46;3.75;;;1.92;;
17177;SDS011;8704;52.006;4.374;2022-12-08T06:01:18;4.65;;;2.50;;
17177;SDS011;8704;52.006;4.374;2022-12-08T06:06:16;6.35;;;2.88;;
17177;SDS011;8704;52.006;4.374;2022-12-08T06:08:45;3.08;;;2.30;;
17177;SDS011;8704;52.006;4.374;2022-12-08T06:11:16;3.38;;;2.60;;
17177;SDS011;8704;52.006;4.374;2022-12-08T06:13:45;3.55;;;2.75;;
17177;SDS011;8704;52.006;4.374;2022-12-08T06:16:13;4.88;;;3.17;;
17177;SDS011;8704;52.006;4.374;2022-12-08T06:18:41;4.53;;;4.13;;
17177;SDS011;8704;52.006;4.374;2022-12-08T06:21:10;5.60;;;4.72;;
17177;SDS011;8704;52.006;4.374;2022-12-08T06:23:40;6.65;;;6.15;;
17177;SDS011;8704;52.006;4.374;2022-12-08T06:26:10;8.25;;;7.70;;
17177;SDS011;8704;52.006;4.374;2022-12-08T06:28:39;9.25;;;8.50;;
17177;SDS011;8704;52.006;4.374;2022-12-08T06:31:08;11.52;;;10.40;;
17177;SDS011;8704;52.006;4.374;2022-12-08T06:33:38;11.00;;;10.20;;
17177;SDS011;8704;52.006;4.374;2022-12-08T06:36:06;11.95;;;10.93;;
17177;SDS011;8704;52.006;4.374;2022-12-08T06:38:34;12.70;;;11.98;;
17177;SDS011;8704;52.006;4.374;2022-12-08T06:41:09;13.50;;;12.50;;
17177;SDS011;8704;52.006;4.374;2022-12-08T06:43:39;13.45;;;12.65;;
17177;SDS011;8704;52.006;4.374;2022-12-08T06:46:08;14.82;;;14.00;;
17177;SDS011;8704;52.006;4.374;2022-12-08T06:48:37;15.10;;;14.10;;
17177;SDS011;8704;52.006;4.374;2022-12-08T06:51:06;14.75;;;13.73;;
17177;SDS011;8704;52.006;4.374;2022-12-08T06:53:35;14.48;;;13.57;;
17177;SDS011;8704;52.006;4.374;2022-12-08T06:56:03;14.48;;;13.63;;
17177;SDS011;8704;52.006;4.374;2022-12-08T06:58:33;14.15;;;13.35;;
17177;SDS011;8704;52.006;4.374;2022-12-08T07:01:05;15.48;;;14.23;;
17177;SDS011;8704;52.006;4.374;2022-12-08T07:03:34;16.17;;;15.27;;
17177;SDS011;8704;52.006;4.374;2022-12-08T07:06:02;16.73;;;15.82;;
17177;SDS011;8704;52.006;4.374;2022-12-08T07:08:31;17.52;;;16.45;;
17177;SDS011;8704;52.006;4.374;2022-12-08T07:11:04;18.02;;;16.83;;
17177;SDS011;8704;52.006;4.374;2022-12-08T07:13:35;16.55;;;15.45;;
17177;SDS011;8704;52.006;4.374;2022-12-08T07:16:06;16.70;;;15.63;;
17177;SDS011;8704;52.006;4.374;2022-12-08T07:18:35;17.05;;;16.02;;
17177;SDS011;8704;52.006;4.374;2022-12-08T07:21:04;17.75;;;16.35;;
17177;SDS011;8704;52.006;4.374;2022-12-08T07:23:34;18.52;;;17.38;;
17177;SDS011;8704;52.006;4.374;2022-12-08T07:26:03;17.70;;;16.70;;
17177;SDS011;8704;52.006;4.374;2022-12-08T07:28:33;19.25;;;17.90;;
17177;SDS011;8704;52.006;4.374;2022-12-08T07:31:03;20.95;;;19.75;;
17177;SDS011;8704;52.006;4.374;2022-12-08T07:33:32;18.90;;;17.40;;
17177;SDS011;8704;52.006;4.374;2022-12-08T07:36:02;18.35;;;17.35;;
17177;SDS011;8704;52.006;4.374;2022-12-08T07:38:31;16.48;;;15.43;;
17177;SDS011;8704;52.006;4.374;2022-12-08T07:41:00;17.50;;;16.60;;
17177;SDS011;8704;52.006;4.374;2022-12-08T07:43:28;20.15;;;18.50;;
17177;SDS011;8704;52.006;4.374;2022-12-08T07:45:57;20.75;;;19.35;;
17177;SDS011;8704;52.006;4.374;2022-12-08T07:48:26;19.70;;;18.45;;
17177;SDS011;8704;52.006;4.374;2022-12-08T07:50:58;18.50;;;17.50;;
17177;SDS011;8704;52.006;4.374;2022-12-08T07:53:27;17.70;;;16.58;;
17177;SDS011;8704;52.006;4.374;2022-12-08T07:55:56;18.33;;;16.95;;
17177;SDS011;8704;52.006;4.374;2022-12-08T07:58:24;17.10;;;15.80;;
17177;SDS011;8704;52.006;4.374;2022-12-08T08:00:52;18.20;;;17.05;;
17177;SDS011;8704;52.006;4.374;2022-12-08T08:03:22;16.73;;;15.88;;
17177;SDS011;8704;52.006;4.374;2022-12-08T08:05:50;18.73;;;17.42;;
17177;SDS011;8704;52.006;4.374;2022-12-08T08:08:18;19.90;;;18.80;;
17177;SDS011;8704;52.006;4.374;2022-12-08T08:10:46;20.52;;;19.35;;
17177;SDS011;8704;52.006;4.374;2022-12-08T08:13:14;19.10;;;17.90;;
17177;SDS011;8704;52.006;4.374;2022-12-08T08:15:42;17.75;;;16.65;;
17177;SDS011;8704;52.006;4.374;2022-12-08T08:18:10;17.73;;;16.65;;
17177;SDS011;8704;52.006;4.374;2022-12-08T08:20:40;19.98;;;18.88;;
17177;SDS011;8704;52.006;4.374;2022-12-08T08:23:08;22.02;;;20.73;;
17177;SDS011;8704;52.006;4.374;2022-12-08T08:25:36;23.33;;;21.63;;
17177;SDS011;8704;52.006;4.374;2022-12-08T08:28:04;24.35;;;22.80;;
17177;SDS011;8704;52.006;4.374;2022-12-08T08:30:32;24.35;;;23.00;;
17177;SDS011;8704;52.006;4.374;2022-12-08T08:33:00;24.38;;;23.17;;
17177;SDS011;8704;52.006;4.374;2022-12-08T08:35:28;16.05;;;14.90;;
17177;SDS011;8704;52.006;4.374;2022-12-08T08:37:57;6.63;;;6.15;;
17177;SDS011;8704;52.006;4.374;2022-12-08T08:40:25;5.10;;;4.70;;
17177;SDS011;8704;52.006;4.374;2022-12-08T08:42:53;6.97;;;4.13;;
17177;SDS011;8704;52.006;4.374;2022-12-08T08:45:21;5.57;;;4.00;;
17177;SDS011;8704;52.006;4.374;2022-12-08T08:47:49;4.07;;;3.72;;
17177;SDS011;8704;52.006;4.374;2022-12-08T08:50:17;6.10;;;3.97;;
17177;SDS011;8704;52.006;4.374;2022-12-08T08:52:45;6.40;;;5.22;;
17177;SDS011;8704;52.006;4.374;2022-12-08T08:55:15;5.97;;;3.33;;
17177;SDS011;8704;52.006;4.374;2022-12-08T08:57:43;6.55;;;4.50;;
17177;SDS011;8704;52.006;4.374;2022-12-08T09:00:12;4.95;;;4.40;;
17177;SDS011;8704;52.006;4.374;2022-12-08T09:02:40;5.68;;;4.40;;
17177;SDS011;8704;52.006;4.374;2022-12-08T09:05:08;4.97;;;4.47;;
17177;SDS011;8704;52.006;4.374;2022-12-08T09:07:36;5.03;;;4.00;;
17177;SDS011;8704;52.006;4.374;2022-12-08T09:10:05;5.22;;;4.75;;
17177;SDS011;8704;52.006;4.374;2022-12-08T09:12:35;6.20;;;5.60;;
17177;SDS011;8704;52.006;4.374;2022-12-08T09:15:04;7.00;;;6.50;;
17177;SDS011;8704;52.006;4.374;2022-12-08T09:17:32;7.47;;;6.97;;
17177;SDS011;8704;52.006;4.374;2022-12-08T09:20:00;8.55;;;7.93;;
17177;SDS011;8704;52.006;4.374;2022-12-08T09:22:29;10.80;;;9.68;;
17177;SDS011;8704;52.006;4.374;2022-12-08T09:24:57;11.55;;;10.55;;
17177;SDS011;8704;52.006;4.374;2022-12-08T09:27:25;10.57;;;9.80;;
17177;SDS011;8704;52.006;4.374;2022-12-08T09:29:54;10.68;;;9.98;;
17177;SDS011;8704;52.006;4.374;2022-12-08T09:32:22;11.30;;;10.60;;
17177;SDS011;8704;52.006;4.374;2022-12-08T09:34:50;12.15;;;11.45;;
17177;SDS011;8704;52.006;4.374;2022-12-08T09:37:19;11.07;;;10.48;;
17177;SDS011;8704;52.006;4.374;2022-12-08T09:39:47;13.82;;;12.77;;
17177;SDS011;8704;52.006;4.374;2022-12-08T09:42:16;12.30;;;11.50;;
17177;SDS011;8704;52.006;4.374;2022-12-08T09:45:06;12.35;;;11.65;;
17177;SDS011;8704;52.006;4.374;2022-12-08T09:47:38;13.85;;;12.95;;
17177;SDS011;8704;52.006;4.374;2022-12-08T09:50:11;14.88;;;13.98;;
17177;SDS011;8704;52.006;4.374;2022-12-08T09:52:42;13.70;;;12.90;;
17177;SDS011;8704;52.006;4.374;2022-12-08T09:55:16;12.60;;;11.73;;
17177;SDS011;8704;52.006;4.374;2022-12-08T09:57:50;11.85;;;11.05;;
17177;SDS011;8704;52.006;4.374;2022-12-08T10:00:25;12.23;;;11.32;;
17177;SDS011;8704;52.006;4.374;2022-12-08T10:02:54;9.73;;;8.98;;
17177;SDS011;8704;52.006;4.374;2022-12-08T10:05:22;9.13;;;8.48;;
17177;SDS011;8704;52.006;4.374;2022-12-08T10:07:55;8.63;;;7.70;;
17177;SDS011;8704;52.006;4.374;2022-12-08T10:10:31;8.02;;;7.30;;
17177;SDS011;8704;52.006;4.374;2022-12-08T10:13:06;9.07;;;8.38;;
17177;SDS011;8704;52.006;4.374;2022-12-08T10:15:43;10.00;;;9.20;;
17177;SDS011;8704;52.006;4.374;2022-12-08T10:18:17;10.30;;;9.70;;
17177;SDS011;8704;52.006;4.374;2022-12-08T10:20:47;11.10;;;10.25;;
17177;SDS011;8704;52.006;4.374;2022-12-08T10:23:18;12.70;;;11.80;;
17177;SDS011;8704;52.006;4.374;2022-12-08T10:25:52;14.10;;;13.32;;
17177;SDS011;8704;52.006;4.374;2022-12-08T10:28:25;12.90;;;12.20;;
17177;SDS011;8704;52.006;4.374;2022-12-08T10:30:55;11.05;;;10.30;;
17177;SDS011;8704;52.006;4.374;2022-12-08T10:33:23;10.52;;;9.60;;
17177;SDS011;8704;52.006;4.374;2022-12-08T10:35:52;9.75;;;9.15;;
17177;SDS011;8704;52.006;4.374;2022-12-08T10:38:25;10.05;;;9.40;;
17177;SDS011;8704;52.006;4.374;2022-12-08T10:40:57;14.23;;;12.98;;
17177;SDS011;8704;52.006;4.374;2022-12-08T10:43:29;14.05;;;13.15;;
17177;SDS011;8704;52.006;4.374;2022-12-08T10:46:07;13.60;;;12.63;;
17177;SDS011;8704;52.006;4.374;2022-12-08T10:48:40;15.15;;;14.15;;
17177;SDS011;8704;52.006;4.374;2022-12-08T10:51:21;13.13;;;12.15;;
17177;SDS011;8704;52.006;4.374;2022-12-08T10:53:51;12.82;;;12.13;;
17177;SDS011;8704;52.006;4.374;2022-12-08T10:56:19;13.82;;;13.02;;
17177;SDS011;8704;52.006;4.374;2022-12-08T10:59:03;16.38;;;15.57;;
17177;SDS011;8704;52.006;4.374;2022-12-08T11:01:35;13.82;;;12.98;;
17177;SDS011;8704;52.006;4.374;2022-12-08T11:04:06;12.32;;;11.43;;
17177;SDS011;8704;52.006;4.374;2022-12-08T11:06:39;9.88;;;9.38;;
17177;SDS011;8704;52.006;4.374;2022-12-08T11:09:21;8.27;;;7.88;;
17177;SDS011;8704;52.006;4.374;2022-12-08T11:11:53;6.93;;;6.45;;
17177;SDS011;8704;52.006;4.374;2022-12-08T11:14:24;7.40;;;6.90;;
17177;SDS011;8704;52.006;4.374;2022-12-08T11:16:55;6.53;;;6.00;;
17177;SDS011;8704;52.006;4.374;2022-12-08T11:19:31;7.13;;;6.65;;
17177;SDS011;8704;52.006;4.374;2022-12-08T11:22:08;8.10;;;7.50;;
17177;SDS011;8704;52.006;4.374;2022-12-08T11:24:55;8.30;;;7.80;;
17177;SDS011;8704;52.006;4.374;2022-12-08T11:27:25;6.25;;;5.85;;
17177;SDS011;8704;52.006;4.374;2022-12-08T11:29:53;6.10;;;5.60;;
17177;SDS011;8704;52.006;4.374;2022-12-08T11:32:22;6.20;;;5.80;;
17177;SDS011;8704;52.006;4.374;2022-12-08T11:34:51;5.47;;;5.07;;
17177;SDS011;8704;52.006;4.374;2022-12-08T11:37:25;6.53;;;5.93;;
17177;SDS011;8704;52.006;4.374;2022-12-08T11:40:02;6.05;;;5.65;;
17177;SDS011;8704;52.006;4.374;2022-12-08T11:42:34;4.28;;;3.70;;
17177;SDS011;8704;52.006;4.374;2022-12-08T11:45:21;5.13;;;3.70;;
17177;SDS011;8704;52.006;4.374;2022-12-08T11:47:56;6.97;;;3.63;;
17177;SDS011;8704;52.006;4.374;2022-12-08T11:50:37;6.82;;;3.72;;
17177;SDS011;8704;52.006;4.374;2022-12-08T11:53:12;6.63;;;4.22;;
17177;SDS011;8704;52.006;4.374;2022-12-08T11:55:46;6.47;;;4.93;;
17177;SDS011;8704;52.006;4.374;2022-12-08T11:58:19;6.90;;;6.28;;
17177;SDS011;8704;52.006;4.374;2022-12-08T12:00:50;6.80;;;6.20;;
17177;SDS011;8704;52.006;4.374;2022-12-08T12:03:21;6.78;;;6.15;;
17177;SDS011;8704;52.006;4.374;2022-12-08T12:05:58;6.00;;;5.50;;
17177;SDS011;8704;52.006;4.374;2022-12-08T12:09:09;6.13;;;5.72;;
17177;SDS011;8704;52.006;4.374;2022-12-08T12:11:45;8.25;;;7.75;;
17177;SDS011;8704;52.006;4.374;2022-12-08T12:14:58;10.15;;;9.48;;
17177;SDS011;8704;52.006;4.374;2022-12-08T12:17:56;10.40;;;9.77;;
17177;SDS011;8704;52.006;4.374;2022-12-08T12:20:30;9.68;;;8.98;;
17177;SDS011;8704;52.006;4.374;2022-12-08T12:23:04;8.40;;;7.90;;
17177;SDS011;8704;52.006;4.374;2022-12-08T12:25:34;8.95;;;8.25;;
17177;SDS011;8704;52.006;4.374;2022-12-08T12:28:04;9.00;;;8.15;;
17177;SDS011;8704;52.006;4.374;2022-12-08T12:30:47;8.40;;;7.70;;
17177;SDS011;8704;52.006;4.374;2022-12-08T12:33:19;7.30;;;6.80;;
17177;SDS011;8704;52.006;4.374;2022-12-08T12:35:50;7.90;;;7.10;;
17177;SDS011;8704;52.006;4.374;2022-12-08T12:38:23;8.75;;;7.95;;
17177;SDS011;8704;52.006;4.374;2022-12-08T12:41:13;10.13;;;9.30;;
17177;SDS011;8704;52.006;4.374;2022-12-08T12:47:04;10.88;;;10.02;;
17177;SDS011;8704;52.006;4.374;2022-12-08T12:52:39;14.30;;;13.20;;
17177;SDS011;8704;52.006;4.374;2022-12-08T12:55:21;12.85;;;11.77;;
17177;SDS011;8704;52.006;4.374;2022-12-08T12:58:21;17.40;;;16.20;;
17177;SDS011;8704;52.006;4.374;2022-12-08T13:04:08;17.67;;;16.27;;
17177;SDS011;8704;52.006;4.374;2022-12-08T13:06:38;14.98;;;13.88;;
17177;SDS011;8704;52.006;4.374;2022-12-08T13:09:19;13.27;;;12.27;;
17177;SDS011;8704;52.006;4.374;2022-12-08T13:11:50;13.95;;;12.55;;
17177;SDS011;8704;52.006;4.374;2022-12-08T13:14:30;12.15;;;10.93;;
17177;SDS011;8704;52.006;4.374;2022-12-08T13:17:01;12.88;;;11.90;;
17177;SDS011;8704;52.006;4.374;2022-12-08T13:19:34;11.07;;;10.27;;
17177;SDS011;8704;52.006;4.374;2022-12-08T13:28:17;12.50;;;11.48;;
17177;SDS011;8704;52.006;4.374;2022-12-08T13:30:52;11.68;;;10.88;;
17177;SDS011;8704;52.006;4.374;2022-12-08T13:33:22;11.98;;;11.27;;
17177;SDS011;8704;52.006;4.374;2022-12-08T13:35:55;11.57;;;10.40;;
17177;SDS011;8704;52.006;4.374;2022-12-08T13:38:43;10.02;;;9.32;;
17177;SDS011;8704;52.006;4.374;2022-12-08T13:41:17;9.45;;;8.85;;
17177;SDS011;8704;52.006;4.374;2022-12-08T13:43:49;10.05;;;9.00;;
17177;SDS011;8704;52.006;4.374;2022-12-08T13:46:42;10.55;;;9.60;;
17177;SDS011;8704;52.006;4.374;2022-12-08T13:49:33;10.27;;;9.55;;
17177;SDS011;8704;52.006;4.374;2022-12-08T13:52:28;12.98;;;11.90;;
17177;SDS011;8704;52.006;4.374;2022-12-08T13:55:24;9.43;;;8.60;;
17177;SDS011;8704;52.006;4.374;2022-12-08T13:58:16;9.38;;;8.75;;
17177;SDS011;8704;52.006;4.374;2022-12-08T14:00:55;5.93;;;5.43;;
17177;SDS011;8704;52.006;4.374;2022-12-08T14:03:28;10.80;;;5.85;;
17177;SDS011;8704;52.006;4.374;2022-12-08T14:05:59;5.88;;;5.40;;
17177;SDS011;8704;52.006;4.374;2022-12-08T14:08:37;6.43;;;5.85;;
17177;SDS011;8704;52.006;4.374;2022-12-08T14:11:28;6.85;;;6.35;;
17177;SDS011;8704;52.006;4.374;2022-12-08T14:16:32;7.32;;;6.72;;
17177;SDS011;8704;52.006;4.374;2022-12-08T14:19:06;6.30;;;5.80;;
17177;SDS011;8704;52.006;4.374;2022-12-08T14:21:47;6.20;;;5.70;;
17177;SDS011;8704;52.006;4.374;2022-12-08T14:24:20;6.28;;;5.78;;
17177;SDS011;8704;52.006;4.374;2022-12-08T14:26:50;6.03;;;5.38;;
17177;SDS011;8704;52.006;4.374;2022-12-08T14:29:35;6.60;;;6.10;;
17177;SDS011;8704;52.006;4.374;2022-12-08T14:32:14;7.30;;;6.70;;
17177;SDS011;8704;52.006;4.374;2022-12-08T14:34:51;8.25;;;6.85;;
17177;SDS011;8704;52.006;4.374;2022-12-08T14:37:20;7.38;;;6.82;;
17177;SDS011;8704;52.006;4.374;2022-12-08T14:39:51;7.68;;;6.80;;
17177;SDS011;8704;52.006;4.374;2022-12-08T14:42:21;8.70;;;7.80;;
17177;SDS011;8704;52.006;4.374;2022-12-08T14:44:59;8.98;;;8.20;;
17177;SDS011;8704;52.006;4.374;2022-12-08T14:47:30;9.23;;;8.45;;
17177;SDS011;8704;52.006;4.374;2022-12-08T14:50:00;9.43;;;8.35;;
17177;SDS011;8704;52.006;4.374;2022-12-08T14:52:30;9.65;;;8.70;;
17177;SDS011;8704;52.006;4.374;2022-12-08T14:54:58;9.32;;;8.55;;
17177;SDS011;8704;52.006;4.374;2022-12-08T14:57:27;9.45;;;8.63;;
17177;SDS011;8704;52.006;4.374;2022-12-08T15:00:09;8.80;;;8.00;;
17177;SDS011;8704;52.006;4.374;2022-12-08T15:02:45;9.93;;;9.13;;
17177;SDS011;8704;52.006;4.374;2022-12-08T15:05:14;10.07;;;8.88;;
17177;SDS011;8704;52.006;4.374;2022-12-08T15:07:46;10.52;;;9.75;;
17177;SDS011;8704;52.006;4.374;2022-12-08T15:10:20;10.68;;;9.63;;
17177;SDS011;8704;52.006;4.374;2022-12-08T15:12:59;9.90;;;9.10;;
17177;SDS011;8704;52.006;4.374;2022-12-08T15:15:43;11.02;;;10.00;;
17177;SDS011;8704;52.006;4.374;2022-12-08T15:18:14;10.80;;;9.95;;
17177;SDS011;8704;52.006;4.374;2022-12-08T15:20:44;10.02;;;9.25;;
17177;SDS011;8704;52.006;4.374;2022-12-08T15:23:18;10.20;;;9.48;;
17177;SDS011;8704;52.006;4.374;2022-12-08T15:25:48;10.48;;;9.68;;
17177;SDS011;8704;52.006;4.374;2022-12-08T15:28:17;9.70;;;9.00;;
17177;SDS011;8704;52.006;4.374;2022-12-08T15:30:54;9.95;;;8.95;;
17177;SDS011;8704;52.006;4.374;2022-12-08T15:33:23;9.20;;;8.50;;
17177;SDS011;8704;52.006;4.374;2022-12-08T15:35:52;8.18;;;7.57;;
17177;SDS011;8704;52.006;4.374;2022-12-08T15:38:21;7.47;;;6.78;;
17177;SDS011;8704;52.006;4.374;2022-12-08T15:40:51;7.35;;;6.72;;
17177;SDS011;8704;52.006;4.374;2022-12-08T15:43:20;7.85;;;7.25;;
17177;SDS011;8704;52.006;4.374;2022-12-08T15:45:48;9.60;;;6.97;;
17177;SDS011;8704;52.006;4.374;2022-12-08T15:48:26;7.35;;;6.85;;
17177;SDS011;8704;52.006;4.374;2022-12-08T15:50:55;8.23;;;6.63;;